createdAt,value
2018-03-06T00:01:08.245Z,40.05
2018-03-06T00:03:35.800Z,40.12
2018-03-06T00:06:03.347Z,42.42
2018-03-06T00:08:30.881Z,44.10
2018-03-06T00:10:58.428Z,36.53
2018-03-06T00:13:25.997Z,39.05
2018-03-06T00:15:53.515Z,38.50
2018-03-06T00:18:21.094Z,40.28
2018-03-06T00:20:48.600Z,37.25
2018-03-06T00:23:16.136Z,41.25
2018-03-06T00:25:44.460Z,42.47
2018-03-06T00:28:11.990Z,38.58
2018-03-06T00:30:39.619Z,37.33
2018-03-06T00:33:07.918Z,40.05
2018-03-06T00:35:35.438Z,39.70
2018-03-06T00:38:02.997Z,37.70
2018-03-06T00:40:30.542Z,39.75
2018-03-06T00:42:58.078Z,43.28
2018-03-06T00:45:25.605Z,41.10
2018-03-06T00:47:53.150Z,38.20
2018-03-06T00:50:20.707Z,40.17
2018-03-06T00:52:48.227Z,41.37
2018-03-06T00:55:15.762Z,39.85
2018-03-06T00:57:44.031Z,41.53
2018-03-06T01:00:12.325Z,39.90
2018-03-06T01:02:39.871Z,39.13
2018-03-06T01:05:07.434Z,38.15
2018-03-06T01:07:35.728Z,38.55
2018-03-06T01:10:03.267Z,37.70
2018-03-06T01:12:30.827Z,39.63
2018-03-06T01:14:59.126Z,34.15
2018-03-06T01:17:26.643Z,36.42
2018-03-06T01:19:54.195Z,37.25
2018-03-06T01:22:21.725Z,37.05
2018-03-06T01:24:49.255Z,39.42
2018-03-06T01:27:16.816Z,39.17
2018-03-06T01:29:45.124Z,36.63
2018-03-06T01:32:12.658Z,38.92
2018-03-06T01:34:40.173Z,38.00
2018-03-06T01:37:07.744Z,39.75
2018-03-06T01:39:35.287Z,38.05
2018-03-06T01:42:02.807Z,37.83
2018-03-06T01:44:30.366Z,38.67
2018-03-06T01:46:57.917Z,39.00
2018-03-06T01:49:25.455Z,37.22
2018-03-06T01:51:58.947Z,39.08
2018-03-06T01:54:26.497Z,38.70
2018-03-06T01:56:54.019Z,38.88
2018-03-06T01:59:21.544Z,37.05
2018-03-06T02:01:49.854Z,37.03
2018-03-06T02:04:17.400Z,39.58
2018-03-06T02:06:44.929Z,36.20
2018-03-06T02:09:13.344Z,36.60
2018-03-06T02:11:40.887Z,35.35
2018-03-06T02:14:08.412Z,36.10
2018-03-06T02:16:35.954Z,39.80
2018-03-06T02:19:03.489Z,44.38
2018-03-06T02:21:31.020Z,43.42
2018-03-06T02:23:58.568Z,36.80
2018-03-06T02:26:26.874Z,42.15
2018-03-06T02:28:54.971Z,43.40
2018-03-06T02:31:22.547Z,38.35
2018-03-06T02:33:50.084Z,42.65
2018-03-06T02:36:17.634Z,44.83
2018-03-06T02:38:45.208Z,41.50
2018-03-06T02:41:12.764Z,38.65
2018-03-06T02:43:40.302Z,41.85
2018-03-06T02:46:10.664Z,39.28
2018-03-06T02:48:38.210Z,41.55
2018-03-06T02:51:05.734Z,37.95
2018-03-06T02:53:34.023Z,38.28
2018-03-06T02:56:01.557Z,41.25
2018-03-06T02:58:29.096Z,39.70
2018-03-06T03:00:56.643Z,42.40
2018-03-06T03:03:24.260Z,41.53
2018-03-06T03:05:51.797Z,38.20
2018-03-06T03:08:19.341Z,41.45
2018-03-06T03:10:46.896Z,38.97
2018-03-06T03:13:14.413Z,40.33
2018-03-06T03:15:41.930Z,38.13
2018-03-06T03:18:09.478Z,37.95
2018-03-06T03:20:37.048Z,38.97
2018-03-06T03:23:04.576Z,36.72
2018-03-06T03:25:32.092Z,40.67
2018-03-06T03:27:59.610Z,38.60
2018-03-06T03:30:27.161Z,38.15
2018-03-06T03:32:54.700Z,39.70
2018-03-06T03:35:22.329Z,36.90
2018-03-06T03:37:49.867Z,36.80
2018-03-06T03:40:17.410Z,39.45
2018-03-06T03:42:44.950Z,43.97
2018-03-06T03:45:12.474Z,41.85
2018-03-06T03:47:40.088Z,41.55
2018-03-06T03:50:07.613Z,39.90
2018-03-06T03:52:35.176Z,38.50
2018-03-06T03:55:02.715Z,39.92
2018-03-06T03:57:30.243Z,41.13
2018-03-06T03:59:58.537Z,39.03
2018-03-06T04:02:26.072Z,41.88
2018-03-06T04:04:53.616Z,40.83
2018-03-06T04:07:21.247Z,41.37
2018-03-06T04:09:48.784Z,40.92
2018-03-06T04:12:16.321Z,40.20
2018-03-06T04:14:43.855Z,38.80
2018-03-06T04:17:11.604Z,43.55
2018-03-06T04:19:39.160Z,41.60
2018-03-06T04:22:06.670Z,43.10
2018-03-06T04:24:34.223Z,43.17
2018-03-06T04:27:01.752Z,40.60
2018-03-06T04:29:29.258Z,42.20
2018-03-06T04:49:15.185Z,42.08
2018-03-06T04:51:42.702Z,42.85
2018-03-06T04:54:10.244Z,42.50
2018-03-06T04:56:37.781Z,40.05
2018-03-06T04:59:05.310Z,44.33
2018-03-06T05:01:32.915Z,43.78
2018-03-06T05:04:00.439Z,43.85
2018-03-06T05:06:27.967Z,44.00
2018-03-06T05:08:55.558Z,42.67
2018-03-06T05:11:23.078Z,44.97
2018-03-06T05:13:50.637Z,43.75
2018-03-06T05:16:18.198Z,43.70
2018-03-06T05:18:45.732Z,47.13
2018-03-06T05:21:13.278Z,45.88
2018-03-06T05:23:40.839Z,43.30
2018-03-06T05:26:08.371Z,42.88
2018-03-06T05:28:35.920Z,44.53
2018-03-06T05:31:04.210Z,45.17
2018-03-06T05:33:32.506Z,44.10
2018-03-06T05:36:00.078Z,42.40
2018-03-06T05:38:27.757Z,46.37
2018-03-06T05:40:55.264Z,41.05
2018-03-06T05:43:23.580Z,42.15
2018-03-06T05:45:51.148Z,45.17
2018-03-06T05:48:19.524Z,45.80
2018-03-06T05:50:47.043Z,46.78
2018-03-06T05:53:14.600Z,46.33
2018-03-06T05:55:42.936Z,46.28
2018-03-06T05:58:10.522Z,46.10
2018-03-06T06:00:38.050Z,45.83
2018-03-06T06:03:05.600Z,41.65
2018-03-06T06:05:33.179Z,44.90
2018-03-06T06:08:00.717Z,46.88
2018-03-06T06:10:28.264Z,47.13
2018-03-06T06:12:55.804Z,45.65
2018-03-06T06:15:24.132Z,50.20
2018-03-06T06:17:51.722Z,45.80
2018-03-06T06:20:19.300Z,44.58
2018-03-06T06:22:46.820Z,43.65
2018-03-06T06:25:14.388Z,45.88
2018-03-06T06:27:41.900Z,44.20
2018-03-06T06:30:10.259Z,46.75
2018-03-06T06:32:37.797Z,44.22
2018-03-06T06:35:05.355Z,44.53
2018-03-06T06:37:33.163Z,46.22
2018-03-06T06:40:01.010Z,49.58
2018-03-06T06:42:28.785Z,41.72
2018-03-06T06:44:56.348Z,42.78
2018-03-06T06:47:24.681Z,45.65
2018-03-06T06:49:53.217Z,45.03
2018-03-06T06:52:20.916Z,46.53
2018-03-06T06:54:48.440Z,43.28
2018-03-06T06:57:15.977Z,50.00
2018-03-06T06:59:43.485Z,46.55
2018-03-06T07:02:11.007Z,43.13
2018-03-06T07:04:39.297Z,45.67
2018-03-06T07:07:07.561Z,45.72
2018-03-06T07:09:35.910Z,46.95
2018-03-06T07:12:03.442Z,44.88
2018-03-06T07:14:30.961Z,47.53
2018-03-06T07:16:59.315Z,44.30
2018-03-06T07:19:26.862Z,46.53
2018-03-06T07:21:55.152Z,44.35
2018-03-06T07:24:22.704Z,44.13
2018-03-06T07:26:50.234Z,45.97
2018-03-06T07:29:17.763Z,50.10
2018-03-06T07:31:46.052Z,45.25
2018-03-06T07:34:14.944Z,44.95
2018-03-06T07:36:42.469Z,46.90
2018-03-06T07:39:09.979Z,44.28
2018-03-06T07:41:37.495Z,44.50
2018-03-06T07:44:05.798Z,44.28
2018-03-06T07:46:33.330Z,46.63
2018-03-06T07:49:00.851Z,46.50
2018-03-06T07:51:28.427Z,46.22
2018-03-06T07:53:55.935Z,45.47
2018-03-06T07:56:23.981Z,58.87
2018-03-06T07:58:51.503Z,43.42
2018-03-06T08:01:19.072Z,44.80
2018-03-06T08:03:46.607Z,45.67
2018-03-06T08:06:14.139Z,48.50
2018-03-06T08:08:43.422Z,45.95
2018-03-06T08:11:11.697Z,44.92
2018-03-06T08:13:39.983Z,47.28
2018-03-06T08:16:08.268Z,46.22
2018-03-06T08:18:35.794Z,42.72
2018-03-06T08:21:03.319Z,43.53
2018-03-06T08:23:30.857Z,41.13
2018-03-06T08:25:58.365Z,44.38
2018-03-06T08:28:25.906Z,42.60
2018-03-06T08:30:53.447Z,44.45
2018-03-06T08:33:20.969Z,44.78
2018-03-06T08:35:49.287Z,44.30
2018-03-06T08:38:16.807Z,45.72
2018-03-06T08:40:45.135Z,45.17
2018-03-06T08:43:12.705Z,44.63
2018-03-06T08:45:40.248Z,45.20
2018-03-06T08:48:07.778Z,50.22
2018-03-06T08:50:35.292Z,43.97
2018-03-06T08:53:02.821Z,43.70
2018-03-06T08:55:30.457Z,44.22
2018-03-06T08:57:58.778Z,41.85
2018-03-06T09:00:26.294Z,47.95
2018-03-06T09:02:53.811Z,44.88
2018-03-06T09:05:21.375Z,44.60
2018-03-06T09:07:48.872Z,44.83
2018-03-06T09:10:16.425Z,44.65
2018-03-06T09:12:44.753Z,44.58
2018-03-06T09:15:12.292Z,44.45
2018-03-06T09:17:39.815Z,47.62
2018-03-06T09:20:07.326Z,45.33
2018-03-06T09:22:34.849Z,44.53
2018-03-06T09:25:03.120Z,41.30
2018-03-06T09:27:30.716Z,43.63
2018-03-06T09:29:58.217Z,46.25
2018-03-06T09:32:25.747Z,46.17
2018-03-06T09:34:53.285Z,47.05
2018-03-06T09:37:20.922Z,49.45
2018-03-06T09:39:48.663Z,50.28
2018-03-06T09:42:16.255Z,50.97
2018-03-06T09:44:43.850Z,46.83
2018-03-06T09:47:11.397Z,48.30
2018-03-06T09:49:38.967Z,56.58
2018-03-06T09:52:06.481Z,48.08
2018-03-06T09:54:34.812Z,48.40
2018-03-06T09:57:02.366Z,50.25
2018-03-06T09:59:29.879Z,50.00
2018-03-06T10:01:57.457Z,51.40
2018-03-06T10:04:25.404Z,48.15
2018-03-06T10:06:53.278Z,51.97
2018-03-06T10:09:21.752Z,48.67
2018-03-06T10:11:49.411Z,46.70
2018-03-06T10:14:16.923Z,48.95
2018-03-06T10:16:44.538Z,49.45
2018-03-06T10:19:13.008Z,49.75
2018-03-06T10:21:40.570Z,47.22
2018-03-06T10:24:09.362Z,47.42
2018-03-06T10:26:36.915Z,48.63
2018-03-06T10:29:04.466Z,46.95
2018-03-06T10:31:32.011Z,40.22
2018-03-06T10:33:59.568Z,46.22
2018-03-06T10:36:29.889Z,45.38
2018-03-06T10:38:58.646Z,42.13
2018-03-06T10:41:26.364Z,45.15
2018-03-06T10:43:54.065Z,45.30
2018-03-06T10:46:21.559Z,45.05
2018-03-06T10:48:49.064Z,41.75
2018-03-06T10:51:16.574Z,39.53
2018-03-06T10:53:44.097Z,39.78
2018-03-06T10:56:28.101Z,44.90
2018-03-06T10:58:55.653Z,42.85
2018-03-06T11:01:25.085Z,46.05
2018-03-06T11:03:52.606Z,46.83
2018-03-06T11:06:20.123Z,47.17
2018-03-06T11:08:48.418Z,47.13
2018-03-06T11:11:15.947Z,44.45
2018-03-06T11:13:43.476Z,49.63
2018-03-06T11:16:11.047Z,53.03
2018-03-06T11:18:38.568Z,47.53
2018-03-06T11:21:06.118Z,49.88
2018-03-06T11:23:33.647Z,50.85
2018-03-06T11:26:01.158Z,48.65
2018-03-06T11:28:28.698Z,47.92
2018-03-06T11:30:56.238Z,47.40
2018-03-06T11:33:23.756Z,49.65
2018-03-06T11:35:51.288Z,48.40
2018-03-06T11:38:18.876Z,50.55
2018-03-06T11:40:46.392Z,50.05
2018-03-06T11:43:13.894Z,48.50
2018-03-06T11:45:41.415Z,50.50
2018-03-06T11:48:08.954Z,49.30
2018-03-06T11:50:37.228Z,47.08
2018-03-06T11:53:05.607Z,48.20
2018-03-06T11:55:33.966Z,47.00
2018-03-06T11:58:01.485Z,48.60
2018-03-06T12:00:29.030Z,53.42
2018-03-06T12:02:56.573Z,54.17
2018-03-06T12:05:24.862Z,48.08
2018-03-06T12:07:52.384Z,48.65
2018-03-06T12:10:19.966Z,52.72
2018-03-06T12:12:48.231Z,53.97
2018-03-06T12:15:15.752Z,52.22
2018-03-06T12:17:43.269Z,53.97
2018-03-06T12:20:11.568Z,48.80
2018-03-06T12:22:39.108Z,45.55
2018-03-06T12:25:06.626Z,46.60
2018-03-06T12:27:34.147Z,49.33
2018-03-06T12:30:01.759Z,44.95
2018-03-06T12:32:29.257Z,46.67
2018-03-06T12:34:56.812Z,47.70
2018-03-06T12:37:24.347Z,47.95
2018-03-06T12:39:52.174Z,50.20
2018-03-06T12:42:19.682Z,50.85
2018-03-06T12:44:47.238Z,46.60
2018-03-06T12:47:15.559Z,47.58
2018-03-06T12:49:43.145Z,52.22
2018-03-06T12:52:13.180Z,51.45
2018-03-06T12:54:40.752Z,55.47
2018-03-06T12:57:08.257Z,52.95
2018-03-06T12:59:35.804Z,50.28
2018-03-06T13:02:03.326Z,54.38
2018-03-06T13:04:31.596Z,49.30
2018-03-06T13:06:59.121Z,54.55
2018-03-06T13:09:26.639Z,50.58
2018-03-06T13:11:54.152Z,52.80
2018-03-06T13:14:21.727Z,50.33
2018-03-06T13:16:49.237Z,50.60
2018-03-06T13:19:16.743Z,52.67
2018-03-06T13:21:44.246Z,50.97
2018-03-06T13:24:11.759Z,49.95
2018-03-06T13:26:39.262Z,50.45
2018-03-06T13:29:06.787Z,52.83
2018-03-06T13:31:34.314Z,51.22
2018-03-06T13:34:01.994Z,58.70
2018-03-06T13:36:29.524Z,60.10
2018-03-06T13:38:57.059Z,57.50
2018-03-06T13:41:25.775Z,57.13
2018-03-06T13:43:53.280Z,57.47
2018-03-06T13:46:20.832Z,54.20
2018-03-06T13:48:50.459Z,55.17
2018-03-06T13:51:19.054Z,58.03
2018-03-06T13:53:47.330Z,64.53
2018-03-06T13:56:15.759Z,57.62
2018-03-06T13:58:43.298Z,62.55
2018-03-06T14:01:10.972Z,67.15
2018-03-06T14:03:38.530Z,68.75
2018-03-06T14:06:06.091Z,76.35
2018-03-06T14:08:33.644Z,70.00
2018-03-06T14:28:18.627Z,70.62
2018-03-06T14:30:46.159Z,74.25
2018-03-06T14:33:13.674Z,70.20
2018-03-06T14:35:41.209Z,75.37
2018-03-06T14:38:08.775Z,78.60
2018-03-06T14:40:36.370Z,77.70
2018-03-06T14:43:03.885Z,74.45
2018-03-06T14:45:31.403Z,75.60
2018-03-06T14:47:58.939Z,81.25
2018-03-06T14:50:26.457Z,81.68
2018-03-06T14:52:53.986Z,80.30
2018-03-06T14:55:21.515Z,81.68
2018-03-06T14:57:49.047Z,80.25
2018-03-06T15:00:16.632Z,71.95
2018-03-06T15:02:44.903Z,75.30
2018-03-06T15:05:12.432Z,75.43
2018-03-06T15:07:40.004Z,74.55
2018-03-06T15:10:07.528Z,71.50
2018-03-06T15:12:35.819Z,66.68
2018-03-06T15:15:03.333Z,67.62
2018-03-06T15:17:31.025Z,63.08
2018-03-06T15:19:58.549Z,71.85
2018-03-06T15:22:26.089Z,67.97
2018-03-06T15:24:53.605Z,70.60
2018-03-06T15:27:21.118Z,66.82
2018-03-06T15:29:48.844Z,66.30
2018-03-06T15:32:16.361Z,74.20
2018-03-06T15:34:43.902Z,72.95
2018-03-06T15:37:11.418Z,70.93
2018-03-06T15:39:38.947Z,76.62
2018-03-06T15:42:06.487Z,73.85
2018-03-06T15:44:34.193Z,76.62
2018-03-06T15:47:02.476Z,71.30
2018-03-06T15:49:30.012Z,73.37
2018-03-06T15:51:57.538Z,78.25
2018-03-06T15:54:25.051Z,75.03
2018-03-06T15:56:52.575Z,80.00
2018-03-06T15:59:20.111Z,77.15
2018-03-06T16:01:47.616Z,76.37
2018-03-06T16:04:15.928Z,77.97
2018-03-06T16:06:43.462Z,82.60
2018-03-06T16:09:11.029Z,77.35
2018-03-06T16:11:38.546Z,71.78
2018-03-06T16:14:06.099Z,76.75
2018-03-06T16:16:33.746Z,77.70
2018-03-06T16:19:01.267Z,76.50
2018-03-06T16:21:28.780Z,77.12
2018-03-06T16:23:56.321Z,76.85
2018-03-06T16:26:23.849Z,81.12
2018-03-06T16:28:51.472Z,82.40
2018-03-06T16:31:19.346Z,80.62
2018-03-06T16:33:46.867Z,84.25
2018-03-06T16:36:14.397Z,80.68
2018-03-06T16:38:41.918Z,83.68
2018-03-06T16:41:09.442Z,79.70
2018-03-06T16:43:37.594Z,79.97
2018-03-06T16:46:05.248Z,89.07
2018-03-06T16:48:32.784Z,83.22
2018-03-06T16:51:01.102Z,89.70
2018-03-06T16:53:28.662Z,85.07
2018-03-06T16:55:56.171Z,85.00
2018-03-06T16:58:23.748Z,84.60
2018-03-06T17:00:52.039Z,82.12
2018-03-06T17:03:19.555Z,92.55
2018-03-06T17:05:47.191Z,92.72
2018-03-06T17:08:14.854Z,92.03
2018-03-06T17:10:42.388Z,97.82
2018-03-06T17:13:09.923Z,91.78
2018-03-06T17:15:38.270Z,94.82
2018-03-06T17:18:05.780Z,100.18
2018-03-06T17:20:33.357Z,94.00
2018-03-06T17:23:00.881Z,101.05
2018-03-06T17:25:29.174Z,96.87
2018-03-06T17:27:57.474Z,94.30
2018-03-06T17:30:25.061Z,91.85
2018-03-06T17:32:52.635Z,86.00
2018-03-06T17:35:20.175Z,91.87
2018-03-06T17:37:47.771Z,89.53
2018-03-06T17:40:15.356Z,84.93
2018-03-06T17:42:42.871Z,92.30
2018-03-06T17:45:10.384Z,89.45
2018-03-06T17:47:37.913Z,92.78
2018-03-06T17:50:06.242Z,87.22
2018-03-06T17:52:33.817Z,85.15
2018-03-06T17:55:01.464Z,87.68
2018-03-06T17:57:29.050Z,87.97
2018-03-06T17:59:56.591Z,88.47
2018-03-06T18:02:24.111Z,80.43
2018-03-06T18:04:52.426Z,83.55
2018-03-06T18:07:20.029Z,83.57
2018-03-06T18:09:47.641Z,81.78
2018-03-06T18:12:17.036Z,82.53
2018-03-06T18:14:44.633Z,84.87
2018-03-06T18:17:12.915Z,76.87
2018-03-06T18:19:40.452Z,78.85
2018-03-06T18:22:08.613Z,78.45
2018-03-06T18:24:36.481Z,78.97
2018-03-06T18:27:04.008Z,83.78
2018-03-06T18:29:32.332Z,79.45
2018-03-06T18:32:00.004Z,85.07
2018-03-06T18:34:27.666Z,79.15
2018-03-06T18:36:55.273Z,80.22
2018-03-06T18:39:28.422Z,80.32
2018-03-06T18:42:15.931Z,75.53
2018-03-06T18:44:44.344Z,75.43
2018-03-06T18:47:11.864Z,76.12
2018-03-06T18:49:51.168Z,74.85
2018-03-06T18:52:18.759Z,72.93
2018-03-06T18:54:46.290Z,75.53
2018-03-06T18:57:14.703Z,73.68
2018-03-06T18:59:42.265Z,72.50
2018-03-06T19:02:21.709Z,75.78
2018-03-06T19:05:01.035Z,72.00
2018-03-06T19:07:28.627Z,70.80
2018-03-06T19:09:56.146Z,70.45
2018-03-06T19:12:24.272Z,72.47
2018-03-06T19:14:51.810Z,65.78
2018-03-06T19:17:19.405Z,67.97
2018-03-06T19:19:46.968Z,68.32
2018-03-06T19:22:15.295Z,65.50
2018-03-06T19:24:42.827Z,67.95
2018-03-06T19:27:10.439Z,61.53
2018-03-06T19:29:39.236Z,64.47
2018-03-06T19:32:06.795Z,64.07
2018-03-06T19:34:34.354Z,64.85
2018-03-06T19:37:02.678Z,68.70
2018-03-06T19:39:30.298Z,63.22
2018-03-06T19:41:58.406Z,65.85
2018-03-06T19:44:26.491Z,61.97
2018-03-06T19:46:54.250Z,62.95
2018-03-06T19:49:21.919Z,61.53
2018-03-06T19:51:49.652Z,60.30
2018-03-06T19:54:18.071Z,58.30
2018-03-06T19:56:45.658Z,57.55
2018-03-06T19:59:13.233Z,58.80
2018-03-06T20:01:40.892Z,56.58
2018-03-06T20:04:08.447Z,57.62
2018-03-06T20:06:36.096Z,58.42
2018-03-06T20:09:03.896Z,55.53
2018-03-06T20:11:31.468Z,55.55
2018-03-06T20:13:59.021Z,57.15
2018-03-06T20:16:27.362Z,53.05
2018-03-06T20:19:00.552Z,54.47
2018-03-06T20:21:28.147Z,55.28
2018-03-06T20:23:55.736Z,54.38
2018-03-06T20:26:23.334Z,48.50
2018-03-06T20:28:51.012Z,53.30
2018-03-06T20:31:24.263Z,53.05
2018-03-06T20:33:51.825Z,46.90
2018-03-06T20:36:19.396Z,50.40
2018-03-06T20:38:52.509Z,54.50
2018-03-06T20:41:20.073Z,51.08
2018-03-06T20:43:47.607Z,49.20
2018-03-06T20:46:20.813Z,51.60
2018-03-06T20:48:48.410Z,47.58
2018-03-06T20:51:15.944Z,46.85
2018-03-06T20:53:49.190Z,43.80
2018-03-06T20:56:18.527Z,48.13
2018-03-06T20:58:46.078Z,50.03
2018-03-06T21:01:13.630Z,48.92
2018-03-06T21:03:41.155Z,48.80
2018-03-06T21:06:08.684Z,50.95
2018-03-06T21:08:36.318Z,50.92
2018-03-06T21:11:04.602Z,47.20
2018-03-06T21:13:32.210Z,45.00
2018-03-06T21:15:59.872Z,53.08
2018-03-06T21:18:27.449Z,44.72
2018-03-06T21:20:54.997Z,49.88
2018-03-06T21:23:22.531Z,48.58
2018-03-06T21:25:50.049Z,47.28
2018-03-06T21:28:17.584Z,47.55
2018-03-06T21:30:45.982Z,45.47
2018-03-06T21:33:13.535Z,44.25
2018-03-06T21:35:41.861Z,45.58
2018-03-06T21:38:09.475Z,47.30
2018-03-06T21:40:37.770Z,45.33
2018-03-06T21:43:05.354Z,46.25
2018-03-06T21:45:32.932Z,47.50
2018-03-06T21:48:00.493Z,45.42
2018-03-06T21:50:28.031Z,44.42
2018-03-06T21:52:55.578Z,46.80
2018-03-06T21:55:23.186Z,47.15
2018-03-06T21:57:50.775Z,46.40
2018-03-06T22:00:18.309Z,47.97
2018-03-06T22:02:45.847Z,46.25
2018-03-06T22:05:13.478Z,43.60
2018-03-06T22:07:41.041Z,46.83
2018-03-06T22:10:08.684Z,44.20
2018-03-06T22:12:36.295Z,44.47
2018-03-06T22:15:03.875Z,44.80
2018-03-06T22:17:31.406Z,44.72
2018-03-06T22:19:58.973Z,46.75
2018-03-06T22:22:26.558Z,46.70
2018-03-06T22:24:54.106Z,46.37
2018-03-06T22:27:21.655Z,40.70
2018-03-06T22:29:49.200Z,46.28
2018-03-06T22:32:16.707Z,42.08
2018-03-06T22:34:44.261Z,43.25
2018-03-06T22:37:11.798Z,42.70
2018-03-06T22:39:39.328Z,39.60
2018-03-06T22:42:06.865Z,44.90
2018-03-06T22:44:34.464Z,43.72
2018-03-06T22:47:01.999Z,40.08
2018-03-06T22:49:29.525Z,38.38
2018-03-06T22:51:57.054Z,40.35
2018-03-06T22:54:24.582Z,40.10
2018-03-06T22:56:52.102Z,39.63
2018-03-06T22:59:19.641Z,39.45
2018-03-06T23:01:47.155Z,37.65
2018-03-06T23:04:14.699Z,40.65
2018-03-06T23:06:42.230Z,40.08
2018-03-06T23:09:09.758Z,43.58
2018-03-06T23:11:37.296Z,35.55
2018-03-06T23:14:04.816Z,38.22
2018-03-06T23:16:33.118Z,35.25
2018-03-06T23:19:00.640Z,39.78
2018-03-06T23:21:28.144Z,39.28
2018-03-06T23:23:55.674Z,38.88
2018-03-06T23:26:23.968Z,39.95
2018-03-06T23:28:52.286Z,39.65
2018-03-06T23:31:19.877Z,39.42
2018-03-06T23:33:47.406Z,40.90
2018-03-06T23:36:15.011Z,37.47
2018-03-06T23:38:43.312Z,37.70
2018-03-06T23:41:10.865Z,40.33
2018-03-06T23:43:38.396Z,36.38
2018-03-06T23:46:05.919Z,40.50
2018-03-06T23:48:33.446Z,39.88
2018-03-06T23:51:00.966Z,35.75
2018-03-06T23:53:28.466Z,41.00
2018-03-06T23:55:56.016Z,40.60
2018-03-06T23:58:23.544Z,37.30
